sensor_id;sensor_type;location;lat;lon;timestamp;temperature;humidity
10903;DHT22;5504;47.312;11.060;2023-08-21T00:00:44;20.50;88.60
10903;DHT22;5504;47.312;11.060;2023-08-21T00:03:10;20.50;88.80
10903;DHT22;5504;47.312;11.060;2023-08-21T00:05:36;20.50;89.10
10903;DHT22;5504;47.312;11.060;2023-08-21T00:08:01;20.50;89.20
10903;DHT22;5504;47.312;11.060;2023-08-21T00:10:30;20.40;89.30
10903;DHT22;5504;47.312;11.060;2023-08-21T00:12:56;20.40;89.60
10903;DHT22;5504;47.312;11.060;2023-08-21T00:15:21;20.40;89.80
10903;DHT22;5504;47.312;11.060;2023-08-21T00:17:47;20.30;89.60
10903;DHT22;5504;47.312;11.060;2023-08-21T00:20:13;20.20;90.10
10903;DHT22;5504;47.312;11.060;2023-08-21T00:22:39;20.30;90.00
10903;DHT22;5504;47.312;11.060;2023-08-21T00:25:04;20.40;90.10
10903;DHT22;5504;47.312;11.060;2023-08-21T00:27:30;20.30;89.70
10903;DHT22;5504;47.312;11.060;2023-08-21T00:29:56;20.30;90.10
10903;DHT22;5504;47.312;11.060;2023-08-21T00:32:22;20.30;90.10
10903;DHT22;5504;47.312;11.060;2023-08-21T00:34:48;20.20;90.10
10903;DHT22;5504;47.312;11.060;2023-08-21T00:37:13;20.10;90.00
10903;DHT22;5504;47.312;11.060;2023-08-21T00:39:39;20.10;90.30
10903;DHT22;5504;47.312;11.060;2023-08-21T00:42:05;20.10;90.40
10903;DHT22;5504;47.312;11.060;2023-08-21T00:44:32;20.10;90.40
10903;DHT22;5504;47.312;11.060;2023-08-21T00:46:58;20.10;90.50
10903;DHT22;5504;47.312;11.060;2023-08-21T00:49:24;20.10;90.50
10903;DHT22;5504;47.312;11.060;2023-08-21T00:51:50;20.10;90.50
10903;DHT22;5504;47.312;11.060;2023-08-21T00:54:17;20.00;90.60
10903;DHT22;5504;47.312;11.060;2023-08-21T00:56:43;20.00;90.50
10903;DHT22;5504;47.312;11.060;2023-08-21T00:59:09;20.10;90.60
10903;DHT22;5504;47.312;11.060;2023-08-21T01:01:35;20.00;90.60
10903;DHT22;5504;47.312;11.060;2023-08-21T01:04:02;20.00;90.70
10903;DHT22;5504;47.312;11.060;2023-08-21T01:06:29;20.00;90.60
10903;DHT22;5504;47.312;11.060;2023-08-21T01:11:52;19.80;90.70
10903;DHT22;5504;47.312;11.060;2023-08-21T01:17:19;19.80;91.00
10903;DHT22;5504;47.312;11.060;2023-08-21T01:19:47;19.80;90.90
10903;DHT22;5504;47.312;11.060;2023-08-21T01:22:13;19.60;91.10
10903;DHT22;5504;47.312;11.060;2023-08-21T01:24:39;19.60;91.10
10903;DHT22;5504;47.312;11.060;2023-08-21T01:27:05;19.70;91.30
10903;DHT22;5504;47.312;11.060;2023-08-21T01:29:32;19.70;91.00
10903;DHT22;5504;47.312;11.060;2023-08-21T01:34:33;19.70;91.30
10903;DHT22;5504;47.312;11.060;2023-08-21T01:37:03;19.60;91.30
10903;DHT22;5504;47.312;11.060;2023-08-21T01:39:29;19.60;91.30
10903;DHT22;5504;47.312;11.060;2023-08-21T01:41:57;19.60;91.50
10903;DHT22;5504;47.312;11.060;2023-08-21T01:44:23;19.60;91.60
10903;DHT22;5504;47.312;11.060;2023-08-21T01:46:49;19.60;91.60
10903;DHT22;5504;47.312;11.060;2023-08-21T01:49:15;19.60;91.50
10903;DHT22;5504;47.312;11.060;2023-08-21T01:51:41;19.60;91.60
10903;DHT22;5504;47.312;11.060;2023-08-21T01:54:06;19.60;91.50
10903;DHT22;5504;47.312;11.060;2023-08-21T01:56:32;19.50;91.50
10903;DHT22;5504;47.312;11.060;2023-08-21T01:58:58;19.50;91.60
10903;DHT22;5504;47.312;11.060;2023-08-21T02:01:24;19.50;91.70
10903;DHT22;5504;47.312;11.060;2023-08-21T02:03:49;19.50;91.60
10903;DHT22;5504;47.312;11.060;2023-08-21T02:06:15;19.40;91.90
10903;DHT22;5504;47.312;11.060;2023-08-21T02:08:41;19.40;91.90
10903;DHT22;5504;47.312;11.060;2023-08-21T02:11:06;19.40;91.80
10903;DHT22;5504;47.312;11.060;2023-08-21T02:13:32;19.40;91.50
10903;DHT22;5504;47.312;11.060;2023-08-21T02:15:58;19.40;91.90
10903;DHT22;5504;47.312;11.060;2023-08-21T02:18:24;19.30;91.90
10903;DHT22;5504;47.312;11.060;2023-08-21T02:20:50;19.40;92.00
10903;DHT22;5504;47.312;11.060;2023-08-21T02:23:16;19.40;91.80
10903;DHT22;5504;47.312;11.060;2023-08-21T02:25:42;19.40;91.80
10903;DHT22;5504;47.312;11.060;2023-08-21T02:28:07;19.40;91.90
10903;DHT22;5504;47.312;11.060;2023-08-21T02:30:33;19.40;91.70
10903;DHT22;5504;47.312;11.060;2023-08-21T02:32:59;19.40;91.80
10903;DHT22;5504;47.312;11.060;2023-08-21T02:35:24;19.40;91.90
10903;DHT22;5504;47.312;11.060;2023-08-21T02:37:50;19.20;91.70
10903;DHT22;5504;47.312;11.060;2023-08-21T02:40:16;19.20;92.10
10903;DHT22;5504;47.312;11.060;2023-08-21T02:42:42;19.20;92.20
10903;DHT22;5504;47.312;11.060;2023-08-21T02:45:08;19.20;92.10
10903;DHT22;5504;47.312;11.060;2023-08-21T02:47:38;19.20;92.20
10903;DHT22;5504;47.312;11.060;2023-08-21T02:50:04;19.30;91.80
10903;DHT22;5504;47.312;11.060;2023-08-21T02:52:31;19.30;91.80
10903;DHT22;5504;47.312;11.060;2023-08-21T02:54:57;19.30;91.80
10903;DHT22;5504;47.312;11.060;2023-08-21T02:57:24;19.30;92.00
10903;DHT22;5504;47.312;11.060;2023-08-21T02:59:50;19.20;92.00
10903;DHT22;5504;47.312;11.060;2023-08-21T03:02:15;19.00;92.40
10903;DHT22;5504;47.312;11.060;2023-08-21T03:04:41;19.00;92.60
10903;DHT22;5504;47.312;11.060;2023-08-21T03:07:07;18.90;93.00
10903;DHT22;5504;47.312;11.060;2023-08-21T03:09:33;19.00;92.80
10903;DHT22;5504;47.312;11.060;2023-08-21T03:11:58;19.00;92.80
10903;DHT22;5504;47.312;11.060;2023-08-21T03:14:26;19.00;92.60
10903;DHT22;5504;47.312;11.060;2023-08-21T03:16:52;19.00;92.70
10903;DHT22;5504;47.312;11.060;2023-08-21T03:19:17;19.00;92.80
10903;DHT22;5504;47.312;11.060;2023-08-21T03:21:43;19.10;92.80
10903;DHT22;5504;47.312;11.060;2023-08-21T03:24:09;19.10;92.70
10903;DHT22;5504;47.312;11.060;2023-08-21T03:26:34;19.00;92.70
10903;DHT22;5504;47.312;11.060;2023-08-21T03:29:00;19.00;92.70
10903;DHT22;5504;47.312;11.060;2023-08-21T03:31:26;19.10;92.70
10903;DHT22;5504;47.312;11.060;2023-08-21T03:33:52;19.00;92.60
10903;DHT22;5504;47.312;11.060;2023-08-21T03:36:18;18.90;92.60
10903;DHT22;5504;47.312;11.060;2023-08-21T03:38:44;18.90;92.80
10903;DHT22;5504;47.312;11.060;2023-08-21T03:41:11;18.80;93.00
10903;DHT22;5504;47.312;11.060;2023-08-21T03:43:37;18.90;93.20
10903;DHT22;5504;47.312;11.060;2023-08-21T03:46:03;18.80;93.10
10903;DHT22;5504;47.312;11.060;2023-08-21T03:48:29;18.80;93.00
10903;DHT22;5504;47.312;11.060;2023-08-21T03:50:54;18.80;93.10
10903;DHT22;5504;47.312;11.060;2023-08-21T03:53:20;18.80;93.00
10903;DHT22;5504;47.312;11.060;2023-08-21T03:55:46;18.70;93.00
10903;DHT22;5504;47.312;11.060;2023-08-21T03:58:13;18.70;93.30
10903;DHT22;5504;47.312;11.060;2023-08-21T04:00:38;18.70;93.10
10903;DHT22;5504;47.312;11.060;2023-08-21T04:03:04;18.60;93.20
10903;DHT22;5504;47.312;11.060;2023-08-21T04:05:30;18.70;93.40
10903;DHT22;5504;47.312;11.060;2023-08-21T04:07:55;18.60;93.50
10903;DHT22;5504;47.312;11.060;2023-08-21T04:10:21;18.60;93.60
10903;DHT22;5504;47.312;11.060;2023-08-21T04:12:47;18.60;93.70
10903;DHT22;5504;47.312;11.060;2023-08-21T04:15:12;18.60;93.70
10903;DHT22;5504;47.312;11.060;2023-08-21T04:17:39;18.60;93.50
10903;DHT22;5504;47.312;11.060;2023-08-21T04:20:05;18.50;93.60
10903;DHT22;5504;47.312;11.060;2023-08-21T04:22:31;18.50;93.90
10903;DHT22;5504;47.312;11.060;2023-08-21T04:24:57;18.60;93.80
10903;DHT22;5504;47.312;11.060;2023-08-21T04:27:22;18.60;93.60
10903;DHT22;5504;47.312;11.060;2023-08-21T04:29:48;18.50;94.00
10903;DHT22;5504;47.312;11.060;2023-08-21T04:32:14;18.40;94.00
10903;DHT22;5504;47.312;11.060;2023-08-21T04:34:39;18.50;94.00
10903;DHT22;5504;47.312;11.060;2023-08-21T04:37:05;18.50;93.90
10903;DHT22;5504;47.312;11.060;2023-08-21T04:39:31;18.50;94.00
10903;DHT22;5504;47.312;11.060;2023-08-21T04:41:56;18.50;93.90
10903;DHT22;5504;47.312;11.060;2023-08-21T04:44:22;18.60;93.90
10903;DHT22;5504;47.312;11.060;2023-08-21T04:46:48;18.60;93.80
10903;DHT22;5504;47.312;11.060;2023-08-21T04:49:15;18.60;93.90
10903;DHT22;5504;47.312;11.060;2023-08-21T04:51:41;18.60;94.00
10903;DHT22;5504;47.312;11.060;2023-08-21T04:54:07;18.60;93.90
10903;DHT22;5504;47.312;11.060;2023-08-21T04:56:33;18.60;94.10
10903;DHT22;5504;47.312;11.060;2023-08-21T04:58:59;18.60;94.20
10903;DHT22;5504;47.312;11.060;2023-08-21T05:01:24;18.60;94.10
10903;DHT22;5504;47.312;11.060;2023-08-21T05:03:51;18.60;94.20
10903;DHT22;5504;47.312;11.060;2023-08-21T05:06:17;18.70;94.10
10903;DHT22;5504;47.312;11.060;2023-08-21T05:08:42;18.60;94.30
10903;DHT22;5504;47.312;11.060;2023-08-21T05:11:08;18.70;94.40
10903;DHT22;5504;47.312;11.060;2023-08-21T05:13:34;18.70;94.40
10903;DHT22;5504;47.312;11.060;2023-08-21T05:15:59;18.70;94.30
10903;DHT22;5504;47.312;11.060;2023-08-21T05:18:25;18.80;94.40
10903;DHT22;5504;47.312;11.060;2023-08-21T05:20:54;18.80;94.30
10903;DHT22;5504;47.312;11.060;2023-08-21T05:23:20;19.00;94.00
10903;DHT22;5504;47.312;11.060;2023-08-21T05:25:48;19.10;94.10
10903;DHT22;5504;47.312;11.060;2023-08-21T05:28:14;19.10;94.00
10903;DHT22;5504;47.312;11.060;2023-08-21T05:30:39;19.20;94.00
10903;DHT22;5504;47.312;11.060;2023-08-21T05:33:05;19.30;94.00
10903;DHT22;5504;47.312;11.060;2023-08-21T05:35:35;19.30;94.20
10903;DHT22;5504;47.312;11.060;2023-08-21T05:38:02;19.40;94.20
10903;DHT22;5504;47.312;11.060;2023-08-21T05:40:28;19.50;94.10
10903;DHT22;5504;47.312;11.060;2023-08-21T05:42:54;19.60;94.00
10903;DHT22;5504;47.312;11.060;2023-08-21T05:45:19;19.80;93.70
10903;DHT22;5504;47.312;11.060;2023-08-21T05:47:45;19.80;93.90
10903;DHT22;5504;47.312;11.060;2023-08-21T05:50:11;19.80;94.10
10903;DHT22;5504;47.312;11.060;2023-08-21T05:52:36;20.00;94.20
10903;DHT22;5504;47.312;11.060;2023-08-21T05:55:02;20.10;93.50
10903;DHT22;5504;47.312;11.060;2023-08-21T05:57:28;20.20;93.70
10903;DHT22;5504;47.312;11.060;2023-08-21T05:59:53;20.30;93.50
10903;DHT22;5504;47.312;11.060;2023-08-21T06:02:19;20.60;93.60
10903;DHT22;5504;47.312;11.060;2023-08-21T06:04:45;20.90;93.00
10903;DHT22;5504;47.312;11.060;2023-08-21T06:07:11;21.30;92.00
10903;DHT22;5504;47.312;11.060;2023-08-21T06:09:37;21.60;90.80
10903;DHT22;5504;47.312;11.060;2023-08-21T06:12:03;22.00;91.20
10903;DHT22;5504;47.312;11.060;2023-08-21T06:14:29;22.50;91.50
10903;DHT22;5504;47.312;11.060;2023-08-21T06:17:02;22.90;91.40
10903;DHT22;5504;47.312;11.060;2023-08-21T06:19:28;23.20;89.00
10903;DHT22;5504;47.312;11.060;2023-08-21T06:21:55;23.50;86.20
10903;DHT22;5504;47.312;11.060;2023-08-21T06:24:21;23.80;84.40
10903;DHT22;5504;47.312;11.060;2023-08-21T06:26:46;24.00;85.20
10903;DHT22;5504;47.312;11.060;2023-08-21T06:29:12;24.40;86.00
10903;DHT22;5504;47.312;11.060;2023-08-21T06:31:38;24.70;82.70
10903;DHT22;5504;47.312;11.060;2023-08-21T06:34:04;24.90;82.20
10903;DHT22;5504;47.312;11.060;2023-08-21T06:36:29;25.20;83.50
10903;DHT22;5504;47.312;11.060;2023-08-21T06:38:55;25.40;81.80
10903;DHT22;5504;47.312;11.060;2023-08-21T06:41:21;25.50;77.00
10903;DHT22;5504;47.312;11.060;2023-08-21T06:43:47;25.60;76.00
10903;DHT22;5504;47.312;11.060;2023-08-21T06:46:13;25.30;76.10
10903;DHT22;5504;47.312;11.060;2023-08-21T06:48:40;25.60;78.90
10903;DHT22;5504;47.312;11.060;2023-08-21T06:51:09;25.70;75.00
10903;DHT22;5504;47.312;11.060;2023-08-21T06:53:35;26.00;77.90
10903;DHT22;5504;47.312;11.060;2023-08-21T06:56:01;26.40;77.10
10903;DHT22;5504;47.312;11.060;2023-08-21T06:58:27;26.80;77.80
10903;DHT22;5504;47.312;11.060;2023-08-21T07:00:56;26.80;77.30
10903;DHT22;5504;47.312;11.060;2023-08-21T07:03:22;27.20;75.90
10903;DHT22;5504;47.312;11.060;2023-08-21T07:05:58;27.10;75.50
10903;DHT22;5504;47.312;11.060;2023-08-21T07:08:24;27.00;69.90
10903;DHT22;5504;47.312;11.060;2023-08-21T07:10:50;26.80;74.70
10903;DHT22;5504;47.312;11.060;2023-08-21T07:13:16;27.30;74.20
10903;DHT22;5504;47.312;11.060;2023-08-21T07:15:42;27.70;75.00
10903;DHT22;5504;47.312;11.060;2023-08-21T07:18:07;27.90;73.10
10903;DHT22;5504;47.312;11.060;2023-08-21T07:20:33;28.30;73.40
10903;DHT22;5504;47.312;11.060;2023-08-21T07:23:00;28.40;71.20
10903;DHT22;5504;47.312;11.060;2023-08-21T07:25:26;28.60;69.20
10903;DHT22;5504;47.312;11.060;2023-08-21T07:27:52;28.60;67.90
10903;DHT22;5504;47.312;11.060;2023-08-21T07:30:20;28.80;71.50
10903;DHT22;5504;47.312;11.060;2023-08-21T07:32:48;29.20;71.60
10903;DHT22;5504;47.312;11.060;2023-08-21T07:35:14;29.30;66.90
10903;DHT22;5504;47.312;11.060;2023-08-21T07:37:43;29.20;70.10
10903;DHT22;5504;47.312;11.060;2023-08-21T07:40:09;29.20;68.70
10903;DHT22;5504;47.312;11.060;2023-08-21T07:42:35;29.40;67.80
10903;DHT22;5504;47.312;11.060;2023-08-21T07:45:01;29.60;67.10
10903;DHT22;5504;47.312;11.060;2023-08-21T07:47:27;29.90;68.90
10903;DHT22;5504;47.312;11.060;2023-08-21T07:49:53;29.80;64.70
10903;DHT22;5504;47.312;11.060;2023-08-21T07:52:19;29.30;64.90
10903;DHT22;5504;47.312;11.060;2023-08-21T07:54:45;29.10;62.20
10903;DHT22;5504;47.312;11.060;2023-08-21T07:57:11;29.20;71.30
10903;DHT22;5504;47.312;11.060;2023-08-21T07:59:37;29.40;63.70
10903;DHT22;5504;47.312;11.060;2023-08-21T08:02:04;29.50;67.30
10903;DHT22;5504;47.312;11.060;2023-08-21T08:04:30;29.30;62.30
10903;DHT22;5504;47.312;11.060;2023-08-21T08:06:56;29.70;63.50
10903;DHT22;5504;47.312;11.060;2023-08-21T08:09:22;29.40;61.50
10903;DHT22;5504;47.312;11.060;2023-08-21T08:11:47;29.60;65.20
10903;DHT22;5504;47.312;11.060;2023-08-21T08:14:13;29.90;65.30
10903;DHT22;5504;47.312;11.060;2023-08-21T08:16:39;29.80;66.00
10903;DHT22;5504;47.312;11.060;2023-08-21T08:19:04;30.10;65.90
10903;DHT22;5504;47.312;11.060;2023-08-21T08:21:30;29.90;59.90
10903;DHT22;5504;47.312;11.060;2023-08-21T08:23:56;30.20;65.70
10903;DHT22;5504;47.312;11.060;2023-08-21T08:26:22;30.90;64.10
10903;DHT22;5504;47.312;11.060;2023-08-21T08:28:48;31.40;65.20
10903;DHT22;5504;47.312;11.060;2023-08-21T08:31:15;30.90;57.30
10903;DHT22;5504;47.312;11.060;2023-08-21T08:33:41;30.80;63.60
10903;DHT22;5504;47.312;11.060;2023-08-21T08:36:07;30.40;59.00
10903;DHT22;5504;47.312;11.060;2023-08-21T08:38:33;30.30;62.30
10903;DHT22;5504;47.312;11.060;2023-08-21T08:41:01;30.60;64.30
10903;DHT22;5504;47.312;11.060;2023-08-21T08:43:27;31.10;62.30
10903;DHT22;5504;47.312;11.060;2023-08-21T08:45:56;31.60;61.90
10903;DHT22;5504;47.312;11.060;2023-08-21T08:48:23;31.70;65.20
10903;DHT22;5504;47.312;11.060;2023-08-21T08:50:50;32.20;59.30
10903;DHT22;5504;47.312;11.060;2023-08-21T08:53:18;32.30;60.60
10903;DHT22;5504;47.312;11.060;2023-08-21T08:55:44;32.70;59.50
10903;DHT22;5504;47.312;11.060;2023-08-21T08:58:10;33.00;61.40
10903;DHT22;5504;47.312;11.060;2023-08-21T09:00:36;33.10;57.10
10903;DHT22;5504;47.312;11.060;2023-08-21T09:03:02;33.20;59.30
10903;DHT22;5504;47.312;11.060;2023-08-21T09:05:28;32.90;53.10
10903;DHT22;5504;47.312;11.060;2023-08-21T09:08:10;32.90;60.80
10903;DHT22;5504;47.312;11.060;2023-08-21T09:10:41;33.40;59.30
10903;DHT22;5504;47.312;11.060;2023-08-21T09:13:15;33.10;54.60
10903;DHT22;5504;47.312;11.060;2023-08-21T09:15:49;33.10;56.30
10903;DHT22;5504;47.312;11.060;2023-08-21T09:18:18;33.20;59.80
10903;DHT22;5504;47.312;11.060;2023-08-21T09:20:44;33.10;58.20
10903;DHT22;5504;47.312;11.060;2023-08-21T09:23:17;32.30;56.40
10903;DHT22;5504;47.312;11.060;2023-08-21T09:25:45;33.00;58.80
10903;DHT22;5504;47.312;11.060;2023-08-21T09:28:13;33.30;58.50
10903;DHT22;5504;47.312;11.060;2023-08-21T09:33:11;33.40;57.10
10903;DHT22;5504;47.312;11.060;2023-08-21T09:35:37;32.90;57.50
10903;DHT22;5504;47.312;11.060;2023-08-21T09:38:03;33.10;56.70
10903;DHT22;5504;47.312;11.060;2023-08-21T09:40:30;33.70;57.90
10903;DHT22;5504;47.312;11.060;2023-08-21T09:42:57;33.90;55.80
10903;DHT22;5504;47.312;11.060;2023-08-21T09:45:24;33.90;57.10
10903;DHT22;5504;47.312;11.060;2023-08-21T09:47:51;33.80;55.80
10903;DHT22;5504;47.312;11.060;2023-08-21T09:50:18;34.10;57.50
10903;DHT22;5504;47.312;11.060;2023-08-21T09:52:45;33.90;54.00
10903;DHT22;5504;47.312;11.060;2023-08-21T09:55:13;33.20;56.30
10903;DHT22;5504;47.312;11.060;2023-08-21T09:57:39;33.20;55.90
10903;DHT22;5504;47.312;11.060;2023-08-21T10:00:07;33.10;54.80
10903;DHT22;5504;47.312;11.060;2023-08-21T10:02:50;33.40;55.80
10903;DHT22;5504;47.312;11.060;2023-08-21T10:05:19;33.70;56.60
10903;DHT22;5504;47.312;11.060;2023-08-21T10:07:47;34.10;56.70
10903;DHT22;5504;47.312;11.060;2023-08-21T10:10:14;34.50;56.90
10903;DHT22;5504;47.312;11.060;2023-08-21T10:12:40;34.40;55.90
10903;DHT22;5504;47.312;11.060;2023-08-21T10:15:07;34.60;55.20
10903;DHT22;5504;47.312;11.060;2023-08-21T10:17:37;34.80;55.90
10903;DHT22;5504;47.312;11.060;2023-08-21T10:20:06;34.90;55.90
10903;DHT22;5504;47.312;11.060;2023-08-21T10:22:42;34.80;53.60
10903;DHT22;5504;47.312;11.060;2023-08-21T10:25:22;34.80;54.20
10903;DHT22;5504;47.312;11.060;2023-08-21T10:27:58;34.80;55.00
10903;DHT22;5504;47.312;11.060;2023-08-21T10:30:27;35.00;54.00
10903;DHT22;5504;47.312;11.060;2023-08-21T10:32:56;35.00;55.70
10903;DHT22;5504;47.312;11.060;2023-08-21T10:35:27;35.10;50.60
10903;DHT22;5504;47.312;11.060;2023-08-21T10:38:13;35.40;56.10
10903;DHT22;5504;47.312;11.060;2023-08-21T10:43:44;35.60;55.20
10903;DHT22;5504;47.312;11.060;2023-08-21T10:46:11;35.60;52.80
10903;DHT22;5504;47.312;11.060;2023-08-21T10:48:37;35.50;53.40
10903;DHT22;5504;47.312;11.060;2023-08-21T10:51:05;35.70;54.00
10903;DHT22;5504;47.312;11.060;2023-08-21T10:53:31;35.70;53.70
10903;DHT22;5504;47.312;11.060;2023-08-21T10:56:05;36.00;53.60
10903;DHT22;5504;47.312;11.060;2023-08-21T10:58:44;36.20;52.10
10903;DHT22;5504;47.312;11.060;2023-08-21T11:01:13;36.40;54.00
10903;DHT22;5504;47.312;11.060;2023-08-21T11:03:40;36.30;52.40
10903;DHT22;5504;47.312;11.060;2023-08-21T11:06:07;36.20;53.00
10903;DHT22;5504;47.312;11.060;2023-08-21T11:08:34;35.90;52.00
10903;DHT22;5504;47.312;11.060;2023-08-21T11:11:02;35.80;50.50
10903;DHT22;5504;47.312;11.060;2023-08-21T11:13:28;35.70;55.60
10903;DHT22;5504;47.312;11.060;2023-08-21T11:16:02;35.50;49.60
10903;DHT22;5504;47.312;11.060;2023-08-21T11:18:37;35.60;50.80
10903;DHT22;5504;47.312;11.060;2023-08-21T11:21:10;35.50;53.30
10903;DHT22;5504;47.312;11.060;2023-08-21T11:23:40;36.10;56.30
10903;DHT22;5504;47.312;11.060;2023-08-21T11:26:10;36.40;54.80
10903;DHT22;5504;47.312;11.060;2023-08-21T11:28:36;36.50;53.90
10903;DHT22;5504;47.312;11.060;2023-08-21T11:31:02;36.50;52.80
10903;DHT22;5504;47.312;11.060;2023-08-21T11:33:28;36.80;52.10
10903;DHT22;5504;47.312;11.060;2023-08-21T11:35:55;35.90;48.00
10903;DHT22;5504;47.312;11.060;2023-08-21T11:38:23;35.80;49.50
10903;DHT22;5504;47.312;11.060;2023-08-21T11:41:04;36.10;56.40
10903;DHT22;5504;47.312;11.060;2023-08-21T11:43:49;36.00;47.80
10903;DHT22;5504;47.312;11.060;2023-08-21T11:46:14;35.90;53.20
10903;DHT22;5504;47.312;11.060;2023-08-21T11:48:43;36.10;51.20
10903;DHT22;5504;47.312;11.060;2023-08-21T11:51:10;36.10;51.90
10903;DHT22;5504;47.312;11.060;2023-08-21T11:53:39;36.50;55.50
10903;DHT22;5504;47.312;11.060;2023-08-21T11:56:14;35.80;49.10
10903;DHT22;5504;47.312;11.060;2023-08-21T11:58:40;36.10;53.30
10903;DHT22;5504;47.312;11.060;2023-08-21T12:01:06;36.40;54.20
10903;DHT22;5504;47.312;11.060;2023-08-21T12:03:39;35.90;46.70
10903;DHT22;5504;47.312;11.060;2023-08-21T12:06:09;35.60;53.30
10903;DHT22;5504;47.312;11.060;2023-08-21T12:08:35;35.50;51.00
10903;DHT22;5504;47.312;11.060;2023-08-21T12:11:01;35.80;55.00
10903;DHT22;5504;47.312;11.060;2023-08-21T12:13:28;35.90;54.10
10903;DHT22;5504;47.312;11.060;2023-08-21T12:15:53;36.20;53.30
10903;DHT22;5504;47.312;11.060;2023-08-21T12:18:19;36.30;55.80
10903;DHT22;5504;47.312;11.060;2023-08-21T12:20:45;36.50;55.60
10903;DHT22;5504;47.312;11.060;2023-08-21T12:23:11;36.80;55.50
10903;DHT22;5504;47.312;11.060;2023-08-21T12:25:36;36.60;52.20
10903;DHT22;5504;47.312;11.060;2023-08-21T12:28:02;36.70;52.80
10903;DHT22;5504;47.312;11.060;2023-08-21T12:30:28;36.60;51.40
10903;DHT22;5504;47.312;11.060;2023-08-21T12:32:54;36.80;51.30
10903;DHT22;5504;47.312;11.060;2023-08-21T12:35:19;36.90;54.30
10903;DHT22;5504;47.312;11.060;2023-08-21T12:37:45;36.90;52.20
10903;DHT22;5504;47.312;11.060;2023-08-21T12:40:11;37.10;51.40
10903;DHT22;5504;47.312;11.060;2023-08-21T12:42:37;37.00;51.50
10903;DHT22;5504;47.312;11.060;2023-08-21T12:45:03;37.00;55.80
10903;DHT22;5504;47.312;11.060;2023-08-21T12:47:29;36.40;48.00
10903;DHT22;5504;47.312;11.060;2023-08-21T12:49:54;36.70;51.40
10903;DHT22;5504;47.312;11.060;2023-08-21T12:52:20;36.70;53.80
10903;DHT22;5504;47.312;11.060;2023-08-21T12:54:46;36.50;50.50
10903;DHT22;5504;47.312;11.060;2023-08-21T12:57:11;36.80;54.30
10903;DHT22;5504;47.312;11.060;2023-08-21T12:59:37;36.90;51.80
10903;DHT22;5504;47.312;11.060;2023-08-21T13:02:03;37.00;51.80
10903;DHT22;5504;47.312;11.060;2023-08-21T13:04:29;37.00;51.50
10903;DHT22;5504;47.312;11.060;2023-08-21T13:06:55;37.00;54.00
10903;DHT22;5504;47.312;11.060;2023-08-21T13:09:21;36.60;49.50
10903;DHT22;5504;47.312;11.060;2023-08-21T13:11:49;36.20;48.90
10903;DHT22;5504;47.312;11.060;2023-08-21T13:14:15;36.30;52.70
10903;DHT22;5504;47.312;11.060;2023-08-21T13:16:40;36.50;52.10
10903;DHT22;5504;47.312;11.060;2023-08-21T13:19:06;36.40;51.50
10903;DHT22;5504;47.312;11.060;2023-08-21T13:21:32;36.60;53.60
10903;DHT22;5504;47.312;11.060;2023-08-21T13:23:57;36.70;52.60
10903;DHT22;5504;47.312;11.060;2023-08-21T13:26:23;36.60;52.40
10903;DHT22;5504;47.312;11.060;2023-08-21T13:28:50;36.50;50.80
10903;DHT22;5504;47.312;11.060;2023-08-21T13:31:17;36.60;51.00
10903;DHT22;5504;47.312;11.060;2023-08-21T13:33:46;36.60;52.80
10903;DHT22;5504;47.312;11.060;2023-08-21T13:36:12;36.60;52.20
10903;DHT22;5504;47.312;11.060;2023-08-21T13:38:38;36.60;51.00
10903;DHT22;5504;47.312;11.060;2023-08-21T13:41:04;36.70;52.50
10903;DHT22;5504;47.312;11.060;2023-08-21T13:43:29;36.70;52.60
10903;DHT22;5504;47.312;11.060;2023-08-21T13:45:55;36.70;51.20
10903;DHT22;5504;47.312;11.060;2023-08-21T13:48:21;36.80;52.50
10903;DHT22;5504;47.312;11.060;2023-08-21T13:50:46;36.80;51.00
10903;DHT22;5504;47.312;11.060;2023-08-21T13:53:12;36.60;52.10
10903;DHT22;5504;47.312;11.060;2023-08-21T13:55:38;36.50;47.00
10903;DHT22;5504;47.312;11.060;2023-08-21T13:58:04;36.40;50.20
10903;DHT22;5504;47.312;11.060;2023-08-21T14:00:29;36.40;50.70
10903;DHT22;5504;47.312;11.060;2023-08-21T14:02:55;36.30;47.90
10903;DHT22;5504;47.312;11.060;2023-08-21T14:05:21;36.00;47.70
10903;DHT22;5504;47.312;11.060;2023-08-21T14:07:47;36.10;48.40
10903;DHT22;5504;47.312;11.060;2023-08-21T14:10:13;36.20;50.50
10903;DHT22;5504;47.312;11.060;2023-08-21T14:12:40;36.10;46.70
10903;DHT22;5504;47.312;11.060;2023-08-21T14:15:06;35.90;46.50
10903;DHT22;5504;47.312;11.060;2023-08-21T14:17:32;35.90;46.10
10903;DHT22;5504;47.312;11.060;2023-08-21T14:19:58;35.80;49.40
10903;DHT22;5504;47.312;11.060;2023-08-21T14:22:24;35.90;50.00
10903;DHT22;5504;47.312;11.060;2023-08-21T14:24:49;35.90;45.90
10903;DHT22;5504;47.312;11.060;2023-08-21T14:27:15;35.50;47.50
10903;DHT22;5504;47.312;11.060;2023-08-21T14:29:42;35.40;46.30
10903;DHT22;5504;47.312;11.060;2023-08-21T14:32:09;35.70;50.70
10903;DHT22;5504;47.312;11.060;2023-08-21T14:34:35;35.80;49.60
10903;DHT22;5504;47.312;11.060;2023-08-21T14:37:01;35.70;45.50
10903;DHT22;5504;47.312;11.060;2023-08-21T14:39:29;35.10;45.90
10903;DHT22;5504;47.312;11.060;2023-08-21T14:41:58;35.00;47.80
10903;DHT22;5504;47.312;11.060;2023-08-21T14:44:25;34.90;49.00
10903;DHT22;5504;47.312;11.060;2023-08-21T14:46:54;35.00;48.50
10903;DHT22;5504;47.312;11.060;2023-08-21T14:49:20;35.00;47.10
10903;DHT22;5504;47.312;11.060;2023-08-21T14:51:46;34.50;46.20
10903;DHT22;5504;47.312;11.060;2023-08-21T14:54:12;34.20;47.30
10903;DHT22;5504;47.312;11.060;2023-08-21T14:56:37;34.20;48.90
10903;DHT22;5504;47.312;11.060;2023-08-21T14:59:03;34.60;49.90
10903;DHT22;5504;47.312;11.060;2023-08-21T15:01:29;35.00;52.00
10903;DHT22;5504;47.312;11.060;2023-08-21T15:03:55;34.90;49.80
10903;DHT22;5504;47.312;11.060;2023-08-21T15:06:21;34.90;49.90
10903;DHT22;5504;47.312;11.060;2023-08-21T15:08:47;35.00;49.90
10903;DHT22;5504;47.312;11.060;2023-08-21T15:11:12;34.80;49.40
10903;DHT22;5504;47.312;11.060;2023-08-21T15:13:39;35.00;51.20
10903;DHT22;5504;47.312;11.060;2023-08-21T15:16:06;34.70;48.00
10903;DHT22;5504;47.312;11.060;2023-08-21T15:18:31;34.50;47.20
10903;DHT22;5504;47.312;11.060;2023-08-21T15:20:58;34.60;50.50
10903;DHT22;5504;47.312;11.060;2023-08-21T15:23:23;34.70;49.00
10903;DHT22;5504;47.312;11.060;2023-08-21T15:25:50;34.60;48.90
10903;DHT22;5504;47.312;11.060;2023-08-21T15:28:16;34.70;51.00
10903;DHT22;5504;47.312;11.060;2023-08-21T15:30:41;34.60;50.10
10903;DHT22;5504;47.312;11.060;2023-08-21T15:33:07;34.70;52.30
10903;DHT22;5504;47.312;11.060;2023-08-21T15:35:33;34.80;52.10
10903;DHT22;5504;47.312;11.060;2023-08-21T15:37:58;34.60;52.60
10903;DHT22;5504;47.312;11.060;2023-08-21T15:40:24;34.70;53.20